createdAt,value
2018-07-27T00:02:01.091Z,4.70
2018-07-27T00:04:28.642Z,5.40
2018-07-27T00:06:56.185Z,4.93
2018-07-27T00:09:23.799Z,5.60
2018-07-27T00:11:51.354Z,5.13
2018-07-27T00:14:18.910Z,5.60
2018-07-27T00:16:46.480Z,5.67
2018-07-27T00:19:14.013Z,5.57
2018-07-27T00:21:41.579Z,5.97
2018-07-27T00:24:09.194Z,5.83
2018-07-27T00:26:36.725Z,5.20
2018-07-27T00:29:04.308Z,5.53
2018-07-27T00:31:31.953Z,5.77
2018-07-27T00:33:59.575Z,5.50
2018-07-27T00:36:27.121Z,5.70
2018-07-27T00:38:54.686Z,5.50
2018-07-27T00:41:22.254Z,6.00
2018-07-27T00:43:50.017Z,6.20
2018-07-27T00:46:17.621Z,5.50
2018-07-27T00:48:45.170Z,5.83
2018-07-27T00:51:12.865Z,5.60
2018-07-27T00:53:40.411Z,5.83
2018-07-27T00:56:08.055Z,5.50
2018-07-27T00:58:35.613Z,5.70
2018-07-27T01:01:03.188Z,5.80
2018-07-27T01:03:30.797Z,6.27
2018-07-27T01:05:58.361Z,6.40
2018-07-27T01:08:25.974Z,5.90
2018-07-27T01:10:53.532Z,5.60
2018-07-27T01:13:21.071Z,6.00
2018-07-27T01:15:48.658Z,6.30
2018-07-27T01:18:16.242Z,5.67
2018-07-27T01:20:43.786Z,6.77
2018-07-27T01:23:11.375Z,5.90
2018-07-27T01:25:38.950Z,6.83
2018-07-27T01:28:06.776Z,6.17
2018-07-27T01:30:34.300Z,5.97
2018-07-27T01:33:01.915Z,5.50
2018-07-27T01:35:29.455Z,6.23
2018-07-27T01:37:57.046Z,6.00
2018-07-27T01:40:24.653Z,7.23
2018-07-27T01:42:52.223Z,6.13
2018-07-27T01:45:19.764Z,6.50
2018-07-27T01:47:47.321Z,6.60
2018-07-27T01:50:14.893Z,6.10
2018-07-27T01:52:42.458Z,6.60
2018-07-27T01:55:09.981Z,7.00
2018-07-27T01:57:37.542Z,6.47
2018-07-27T02:00:05.165Z,6.53
2018-07-27T02:02:32.755Z,6.77
2018-07-27T02:05:00.317Z,7.17
2018-07-27T02:07:27.908Z,6.50
2018-07-27T02:09:55.577Z,7.03
2018-07-27T02:12:23.143Z,6.63
2018-07-27T02:14:50.709Z,7.20
2018-07-27T02:17:18.233Z,6.50
2018-07-27T02:19:45.814Z,6.73
2018-07-27T02:22:13.421Z,7.43
2018-07-27T02:24:40.948Z,7.20
2018-07-27T02:27:08.511Z,7.07
2018-07-27T02:29:36.057Z,6.17
2018-07-27T02:32:03.669Z,7.30
2018-07-27T02:34:31.262Z,7.13
2018-07-27T02:36:58.839Z,7.33
2018-07-27T02:39:26.362Z,7.83
2018-07-27T02:41:53.956Z,7.43
2018-07-27T02:44:21.561Z,8.10
2018-07-27T02:46:49.107Z,8.27
2018-07-27T02:49:16.720Z,8.10
2018-07-27T02:51:44.237Z,8.70
2018-07-27T02:54:11.837Z,8.93
2018-07-27T02:56:39.397Z,9.20
2018-07-27T02:59:06.965Z,8.10
2018-07-27T03:01:34.537Z,8.20
2018-07-27T03:04:02.081Z,8.67
2018-07-27T03:06:29.666Z,8.70
2018-07-27T03:08:57.222Z,8.57
2018-07-27T03:11:24.757Z,8.03
2018-07-27T03:13:52.298Z,8.00
2018-07-27T03:16:19.878Z,8.37
2018-07-27T03:18:47.444Z,8.67
2018-07-27T03:21:15.069Z,8.20
2018-07-27T03:23:42.613Z,9.13
2018-07-27T03:26:10.168Z,8.70
2018-07-27T03:28:37.736Z,8.53
2018-07-27T03:31:05.271Z,9.40
2018-07-27T03:33:32.858Z,8.73
2018-07-27T03:36:00.435Z,8.90
2018-07-27T03:38:28.003Z,8.70
2018-07-27T03:40:55.567Z,9.00
2018-07-27T03:43:23.130Z,8.93
2018-07-27T03:45:50.729Z,9.27
2018-07-27T03:48:18.268Z,8.20
2018-07-27T03:50:45.824Z,7.97
2018-07-27T03:53:13.383Z,8.90
2018-07-27T03:55:40.915Z,9.40
2018-07-27T03:58:08.495Z,9.13
2018-07-27T04:00:36.079Z,9.17
2018-07-27T04:03:03.725Z,9.30
2018-07-27T04:05:31.283Z,10.30
2018-07-27T04:07:58.870Z,10.23
2018-07-27T04:10:26.429Z,9.60
2018-07-27T04:12:54.093Z,9.83
2018-07-27T04:15:21.653Z,9.70
2018-07-27T04:17:54.407Z,9.50
2018-07-27T04:20:21.989Z,9.83
2018-07-27T04:22:49.545Z,9.67
2018-07-27T04:25:17.103Z,9.70
2018-07-27T04:27:44.657Z,10.50
2018-07-27T04:30:12.241Z,9.90
2018-07-27T04:32:39.876Z,9.30
2018-07-27T04:35:07.459Z,9.33
2018-07-27T04:37:35.067Z,9.60
2018-07-27T04:40:02.646Z,9.40
2018-07-27T04:42:30.192Z,9.30
2018-07-27T04:44:57.757Z,9.93
2018-07-27T04:47:25.325Z,9.70
2018-07-27T04:49:52.896Z,10.20
2018-07-27T04:52:21.447Z,10.07
2018-07-27T04:54:48.993Z,8.77
2018-07-27T04:57:16.557Z,9.80
2018-07-27T04:59:44.419Z,10.10
2018-07-27T05:02:11.983Z,10.03
2018-07-27T05:04:39.547Z,9.83
2018-07-27T05:07:07.144Z,9.47
2018-07-27T05:09:34.688Z,10.20
2018-07-27T05:12:02.242Z,9.23
2018-07-27T05:14:29.809Z,9.30
2018-07-27T05:16:57.350Z,9.90
2018-07-27T05:19:24.916Z,9.30
2018-07-27T05:21:52.467Z,9.47
2018-07-27T05:24:20.063Z,9.30
2018-07-27T05:26:47.609Z,9.43
2018-07-27T05:29:15.125Z,9.87
2018-07-27T05:31:42.696Z,9.90
2018-07-27T05:34:10.260Z,9.90
2018-07-27T05:36:37.857Z,9.23
2018-07-27T05:39:08.083Z,9.17
2018-07-27T05:41:35.691Z,9.13
2018-07-27T05:44:03.436Z,8.40
2018-07-27T05:46:31.025Z,8.90
2018-07-27T05:48:58.868Z,8.60
2018-07-27T05:51:26.424Z,8.50
2018-07-27T05:53:53.944Z,8.30
2018-07-27T05:56:21.500Z,9.60
2018-07-27T05:58:49.012Z,8.13
2018-07-27T06:01:16.606Z,9.10
2018-07-27T06:03:44.143Z,9.37
2018-07-27T06:06:11.706Z,8.87
2018-07-27T06:08:39.273Z,9.00
2018-07-27T06:11:07.174Z,8.67
2018-07-27T06:13:34.693Z,8.80
2018-07-27T06:16:02.266Z,8.70
2018-07-27T06:18:29.811Z,8.30
2018-07-27T06:20:57.536Z,8.70
2018-07-27T06:23:25.146Z,8.33
2018-07-27T06:25:52.684Z,8.00
2018-07-27T06:28:20.203Z,7.40
2018-07-27T06:30:47.761Z,8.70
2018-07-27T06:33:15.324Z,8.30
2018-07-27T06:35:42.897Z,9.23
2018-07-27T06:38:10.475Z,8.53
2018-07-27T06:40:38.026Z,8.70
2018-07-27T06:43:05.737Z,8.97
2018-07-27T06:45:33.336Z,7.40
2018-07-27T06:48:00.913Z,7.93
2018-07-27T06:50:28.753Z,8.20
2018-07-27T06:52:56.318Z,8.27
2018-07-27T06:55:23.885Z,8.33
2018-07-27T06:57:51.684Z,7.87
2018-07-27T07:00:19.298Z,8.40
2018-07-27T07:02:46.898Z,7.70
2018-07-27T07:05:14.453Z,7.73
2018-07-27T07:07:42.039Z,7.40
2018-07-27T07:10:09.684Z,6.50
2018-07-27T07:12:37.294Z,7.80
2018-07-27T07:15:05.505Z,8.63
2018-07-27T07:17:33.094Z,7.63
2018-07-27T07:20:00.669Z,9.17
2018-07-27T07:22:28.213Z,7.37
2018-07-27T07:24:55.818Z,7.80
2018-07-27T07:27:23.414Z,7.53
2018-07-27T07:29:50.938Z,8.20
2018-07-27T07:32:19.791Z,7.90
2018-07-27T07:34:47.387Z,8.00
2018-07-27T07:37:15.131Z,8.17
2018-07-27T07:39:42.662Z,7.80
2018-07-27T07:42:10.227Z,7.40
2018-07-27T07:44:37.786Z,6.97
2018-07-27T07:47:05.388Z,8.30
2018-07-27T07:49:32.944Z,7.43
2018-07-27T07:52:00.636Z,7.40
2018-07-27T07:54:28.187Z,7.57
2018-07-27T07:56:55.785Z,7.87
2018-07-27T07:59:23.357Z,7.97
2018-07-27T08:01:50.957Z,7.67
2018-07-27T08:04:18.597Z,7.93
2018-07-27T08:06:50.000Z,7.50
2018-07-27T08:09:17.685Z,7.80
2018-07-27T08:11:45.245Z,7.70
2018-07-27T08:14:15.841Z,7.33
2018-07-27T08:16:43.412Z,7.10
2018-07-27T08:19:11.350Z,7.00
2018-07-27T08:21:40.054Z,8.33
2018-07-27T08:24:08.036Z,7.97
2018-07-27T08:26:40.437Z,7.30
2018-07-27T08:29:10.579Z,7.43
2018-07-27T08:31:38.750Z,7.17
2018-07-27T08:34:06.669Z,7.47
2018-07-27T08:36:34.936Z,7.60
2018-07-27T08:39:04.953Z,7.43
2018-07-27T08:41:32.509Z,7.17
2018-07-27T08:44:00.067Z,8.07
2018-07-27T08:46:27.645Z,7.43
2018-07-27T08:49:29.236Z,8.03
2018-07-27T08:51:56.837Z,7.50
2018-07-27T08:54:24.393Z,7.73
2018-07-27T08:56:51.988Z,7.67
2018-07-27T08:59:19.612Z,7.30
2018-07-27T09:01:47.194Z,7.70
2018-07-27T09:04:14.783Z,7.33
2018-07-27T09:06:42.365Z,7.90
2018-07-27T09:09:11.176Z,7.50
2018-07-27T09:11:38.792Z,8.13
2018-07-27T09:14:06.407Z,7.40
2018-07-27T09:16:33.981Z,8.20
2018-07-27T09:19:01.523Z,7.67
2018-07-27T09:21:29.156Z,7.67
2018-07-27T09:23:56.743Z,8.03
2018-07-27T09:26:25.202Z,8.40
2018-07-27T09:28:52.726Z,7.90
2018-07-27T09:31:20.257Z,7.90
2018-07-27T09:33:47.876Z,7.73
2018-07-27T09:36:15.443Z,7.30
2018-07-27T09:38:42.966Z,8.07
2018-07-27T09:41:10.500Z,7.03
2018-07-27T09:43:38.060Z,7.90
2018-07-27T09:46:06.143Z,8.00
2018-07-27T09:48:33.693Z,7.37
2018-07-27T09:51:01.249Z,7.80
2018-07-27T09:53:28.792Z,6.83
2018-07-27T09:55:56.335Z,8.10
2018-07-27T09:58:23.912Z,8.60
2018-07-27T10:00:56.663Z,7.40
2018-07-27T10:03:24.220Z,7.10
2018-07-27T10:05:51.842Z,7.40
2018-07-27T10:08:19.485Z,8.00
2018-07-27T10:10:47.030Z,7.37
2018-07-27T10:13:14.546Z,6.70
2018-07-27T10:15:42.127Z,6.50
2018-07-27T10:18:09.663Z,6.90
2018-07-27T10:20:37.250Z,7.60
2018-07-27T10:23:04.871Z,6.83
2018-07-27T10:25:32.817Z,6.17
2018-07-27T10:28:00.376Z,6.30
2018-07-27T10:30:28.129Z,6.40
2018-07-27T10:32:55.693Z,6.60
2018-07-27T10:35:23.228Z,6.10
2018-07-27T10:37:50.811Z,6.40
2018-07-27T10:40:18.412Z,5.80
2018-07-27T10:42:45.935Z,6.30
2018-07-27T10:45:13.510Z,6.50
2018-07-27T10:47:41.070Z,7.37
2018-07-27T10:50:08.632Z,6.90
2018-07-27T10:52:36.223Z,6.60
2018-07-27T10:55:03.772Z,6.73
2018-07-27T10:57:31.331Z,6.57
2018-07-27T10:59:58.877Z,6.83
2018-07-27T11:02:26.482Z,6.83
2018-07-27T11:04:53.993Z,6.03
2018-07-27T11:07:21.566Z,6.90
2018-07-27T11:09:49.173Z,6.40
2018-07-27T11:12:16.772Z,6.33
2018-07-27T11:14:44.308Z,6.23
2018-07-27T11:17:11.947Z,6.70
2018-07-27T11:19:39.454Z,6.57
2018-07-27T11:22:07.141Z,6.70
2018-07-27T11:24:34.663Z,6.53
2018-07-27T11:27:02.229Z,6.10
2018-07-27T11:29:29.846Z,5.77
2018-07-27T11:31:57.845Z,5.73
2018-07-27T11:34:25.413Z,5.00
2018-07-27T11:36:53.384Z,5.77
2018-07-27T11:39:20.985Z,5.20
2018-07-27T11:41:48.835Z,4.83
2018-07-27T11:44:16.394Z,5.30
2018-07-27T11:46:43.995Z,4.73
2018-07-27T11:49:11.618Z,4.57
2018-07-27T11:51:39.217Z,3.90
2018-07-27T11:54:06.832Z,4.50
2018-07-27T11:56:34.541Z,4.30
2018-07-27T11:59:02.130Z,4.20
2018-07-27T12:01:29.763Z,4.77
2018-07-27T12:03:57.319Z,4.33
2018-07-27T12:06:24.924Z,4.00
2018-07-27T12:08:52.558Z,4.30
2018-07-27T12:11:20.105Z,4.07
2018-07-27T12:13:47.782Z,4.70
2018-07-27T12:16:15.317Z,4.10
2018-07-27T12:18:42.893Z,4.67
2018-07-27T12:21:10.586Z,4.20
2018-07-27T12:23:38.162Z,4.40
2018-07-27T12:26:05.792Z,5.00
2018-07-27T12:28:33.492Z,4.13
2018-07-27T12:31:01.110Z,5.30
2018-07-27T12:33:28.712Z,4.70
2018-07-27T12:35:56.332Z,4.80
2018-07-27T12:38:23.968Z,4.70
2018-07-27T12:40:51.566Z,4.37
2018-07-27T12:43:19.125Z,4.63
2018-07-27T12:45:46.756Z,5.63
2018-07-27T12:48:14.314Z,4.50
2018-07-27T12:50:41.960Z,5.87
2018-07-27T12:53:09.536Z,4.40
2018-07-27T12:55:37.155Z,4.77
2018-07-27T12:58:04.760Z,4.80
2018-07-27T13:00:32.379Z,5.23
2018-07-27T13:02:59.989Z,5.50
2018-07-27T13:05:27.635Z,5.00
2018-07-27T13:07:55.519Z,5.40
2018-07-27T13:10:23.284Z,5.33
2018-07-27T13:12:50.898Z,5.63
2018-07-27T13:15:18.502Z,4.80
2018-07-27T13:17:46.216Z,5.27
2018-07-27T13:20:13.790Z,4.80
2018-07-27T13:22:41.431Z,5.10
2018-07-27T13:25:09.032Z,4.80
2018-07-27T13:27:36.677Z,5.27
2018-07-27T13:30:04.973Z,5.40
2018-07-27T13:32:32.548Z,5.20
2018-07-27T13:35:00.881Z,5.30
2018-07-27T13:39:58.728Z,5.10
2018-07-27T13:42:27.610Z,5.67
2018-07-27T13:44:55.546Z,5.10
2018-07-27T13:47:53.275Z,4.50
2018-07-27T13:56:42.387Z,4.63
2018-07-27T13:59:42.172Z,4.73
2018-07-27T14:02:16.416Z,4.80
2018-07-27T14:04:43.994Z,4.60
2018-07-27T14:07:12.398Z,4.03
2018-07-27T14:09:40.051Z,4.07
2018-07-27T14:12:07.664Z,4.00
2018-07-27T14:14:35.284Z,3.80
2018-07-27T14:17:02.890Z,4.70
2018-07-27T14:19:30.842Z,4.50
2018-07-27T14:21:58.436Z,4.60
2018-07-27T14:24:26.049Z,4.97
2018-07-27T14:26:53.610Z,3.37
2018-07-27T14:29:21.215Z,3.73
2018-07-27T14:31:48.847Z,3.97
2018-07-27T14:34:16.443Z,3.70
2018-07-27T14:36:44.032Z,4.10
2018-07-27T14:39:14.178Z,4.17
2018-07-27T14:41:42.309Z,4.57
2018-07-27T14:44:09.874Z,4.07
2018-07-27T14:46:37.912Z,6.30
2018-07-27T14:49:10.440Z,4.73
2018-07-27T14:51:38.225Z,4.93
2018-07-27T14:54:06.088Z,5.27
2018-07-27T14:56:33.629Z,4.53
2018-07-27T14:59:01.211Z,4.63
2018-07-27T15:01:28.965Z,4.10
2018-07-27T15:03:56.616Z,4.07
2018-07-27T15:06:24.232Z,4.50
2018-07-27T15:08:51.834Z,3.80
2018-07-27T15:11:19.435Z,4.10
2018-07-27T15:13:47.006Z,4.70
2018-07-27T15:16:14.590Z,4.20
2018-07-27T15:18:42.181Z,4.40
2018-07-27T15:21:09.741Z,5.50
2018-07-27T15:23:37.345Z,5.67
2018-07-27T15:26:04.994Z,6.00
2018-07-27T15:28:32.933Z,5.73
2018-07-27T15:31:00.630Z,5.40
2018-07-27T15:33:28.216Z,5.27
2018-07-27T15:35:55.858Z,4.67
2018-07-27T15:38:23.482Z,5.20
2018-07-27T15:40:51.060Z,5.93
2018-07-27T15:43:18.685Z,5.10
2018-07-27T15:45:46.246Z,5.47
2018-07-27T15:48:13.824Z,5.30
2018-07-27T15:50:41.402Z,4.97
2018-07-27T15:53:08.969Z,5.70
2018-07-27T15:55:36.698Z,4.70
2018-07-27T15:58:04.286Z,4.43
2018-07-27T16:00:31.865Z,4.80
2018-07-27T16:02:59.454Z,4.47
2018-07-27T16:05:27.026Z,4.60
2018-07-27T16:07:54.598Z,4.43
2018-07-27T16:10:22.148Z,4.63
2018-07-27T16:12:49.755Z,6.10
2018-07-27T16:15:17.329Z,4.90
2018-07-27T16:17:44.945Z,5.03
2018-07-27T16:20:12.544Z,10.30
2018-07-27T16:22:40.107Z,5.37
2018-07-27T16:25:07.723Z,9.47
2018-07-27T16:27:35.314Z,7.03
2018-07-27T16:30:02.952Z,5.10
2018-07-27T16:32:30.576Z,6.70
2018-07-27T16:34:58.348Z,7.10
2018-07-27T16:37:25.899Z,6.57
2018-07-27T16:39:53.524Z,8.60
2018-07-27T16:42:21.127Z,5.40
2018-07-27T16:44:48.720Z,6.03
2018-07-27T16:47:16.302Z,5.90
2018-07-27T16:49:43.901Z,5.10
2018-07-27T16:52:11.431Z,5.50
2018-07-27T16:54:38.995Z,4.50
2018-07-27T16:57:06.553Z,5.43
2018-07-27T16:59:34.231Z,5.10
2018-07-27T17:02:01.907Z,5.30
2018-07-27T17:04:29.501Z,5.23
2018-07-27T17:06:57.044Z,5.77
2018-07-27T17:09:24.659Z,6.03
2018-07-27T17:11:52.243Z,5.73
2018-07-27T17:14:19.831Z,5.90
2018-07-27T17:16:47.373Z,6.40
2018-07-27T17:19:14.904Z,6.27
2018-07-27T17:21:42.417Z,6.37
2018-07-27T17:24:09.981Z,6.67
2018-07-27T17:26:37.549Z,6.63
2018-07-27T17:29:05.233Z,6.40
2018-07-27T17:31:32.877Z,6.60
2018-07-27T17:34:00.421Z,6.33
2018-07-27T17:36:27.985Z,6.73
2018-07-27T17:38:55.524Z,7.07
2018-07-27T17:41:23.081Z,7.00
2018-07-27T17:43:50.666Z,6.23
2018-07-27T17:46:18.238Z,6.50
2018-07-27T17:48:45.756Z,7.00
2018-07-27T17:51:13.289Z,6.70
2018-07-27T17:53:40.807Z,7.00
2018-07-27T17:56:08.425Z,7.40
2018-07-27T17:58:35.946Z,6.40
2018-07-27T18:01:03.544Z,7.90
2018-07-27T18:03:31.150Z,7.53
2018-07-27T18:05:58.677Z,6.70
2018-07-27T18:08:26.240Z,7.30
2018-07-27T18:10:54.670Z,7.10
2018-07-27T18:13:22.336Z,7.00
2018-07-27T18:15:49.948Z,6.70
2018-07-27T18:18:17.481Z,7.00
2018-07-27T18:20:45.032Z,7.40
2018-07-27T18:23:12.581Z,7.27
2018-07-27T18:25:40.187Z,6.63
2018-07-27T18:28:07.813Z,7.47
2018-07-27T18:30:35.460Z,7.03
2018-07-27T18:33:03.098Z,6.40
2018-07-27T18:35:30.635Z,7.57
2018-07-27T18:37:58.237Z,7.53
2018-07-27T18:40:25.804Z,7.10
2018-07-27T18:42:53.387Z,6.53
2018-07-27T18:45:20.949Z,7.40
2018-07-27T18:47:48.567Z,7.33
2018-07-27T18:50:16.136Z,8.10
2018-07-27T18:52:43.811Z,8.07
2018-07-27T18:55:11.364Z,8.13
2018-07-27T18:57:38.930Z,7.90
2018-07-27T19:00:06.554Z,8.73
2018-07-27T19:02:34.084Z,7.80
2018-07-27T19:05:01.640Z,7.67
2018-07-27T19:07:29.217Z,8.43
2018-07-27T19:09:56.756Z,7.87
2018-07-27T19:12:24.369Z,8.33
2018-07-27T19:14:51.935Z,7.87
2018-07-27T19:19:59.659Z,8.37
2018-07-27T19:22:27.240Z,7.63
2018-07-27T19:24:54.817Z,8.07
2018-07-27T19:27:22.451Z,7.70
2018-07-27T19:29:49.998Z,7.00
2018-07-27T19:32:17.610Z,9.67
2018-07-27T19:34:45.209Z,7.80
2018-07-27T19:37:12.800Z,7.40
2018-07-27T19:39:40.365Z,7.80
2018-07-27T19:42:08.391Z,7.83
2018-07-27T19:44:36.019Z,7.93
2018-07-27T19:47:03.638Z,7.93
2018-07-27T19:50:01.217Z,7.83
2018-07-27T19:52:28.871Z,8.20
2018-07-27T19:54:56.523Z,8.40
2018-07-27T19:57:24.097Z,8.13
2018-07-27T19:59:51.732Z,7.30
2018-07-27T20:02:19.376Z,7.50
2018-07-27T20:04:47.002Z,8.33
2018-07-27T20:07:14.631Z,7.40
2018-07-27T20:09:42.238Z,7.17
2018-07-27T20:12:09.851Z,7.37
2018-07-27T20:14:37.469Z,7.83
2018-07-27T20:17:05.226Z,6.80
2018-07-27T20:19:32.849Z,7.80
2018-07-27T20:22:00.433Z,8.30
2018-07-27T20:24:28.156Z,7.83
2018-07-27T20:26:56.042Z,7.90
2018-07-27T20:29:23.679Z,6.50
2018-07-27T20:31:51.315Z,7.43
2018-07-27T20:34:18.997Z,8.13
2018-07-27T20:36:46.608Z,7.60
2018-07-27T20:39:14.673Z,7.20
2018-07-27T20:41:43.102Z,8.23
2018-07-27T20:44:10.760Z,7.63
2018-07-27T20:46:38.426Z,9.00
2018-07-27T20:49:06.193Z,9.23
2018-07-27T20:51:33.981Z,8.77
2018-07-27T20:54:01.605Z,8.57
2018-07-27T20:56:29.277Z,7.87
2018-07-27T20:58:56.925Z,7.30
2018-07-27T21:01:24.576Z,7.40
2018-07-27T21:03:52.185Z,7.37
2018-07-27T21:06:19.784Z,8.37
2018-07-27T21:08:47.438Z,7.73
2018-07-27T21:11:15.131Z,8.63
2018-07-27T21:13:42.713Z,7.53
2018-07-27T21:16:10.602Z,7.77
2018-07-27T21:18:38.248Z,9.17
2018-07-27T21:21:05.903Z,8.27
2018-07-27T21:23:33.523Z,7.80
2018-07-27T21:26:01.137Z,8.70
2018-07-27T21:28:28.772Z,7.90
2018-07-27T21:30:56.461Z,6.87
2018-07-27T21:33:24.087Z,7.13
2018-07-27T21:35:51.709Z,8.20
2018-07-27T21:38:19.310Z,8.00
2018-07-27T21:40:46.901Z,7.87
2018-07-27T21:43:14.617Z,8.40
2018-07-27T21:45:42.283Z,8.80
2018-07-27T21:48:10.098Z,8.50
2018-07-27T21:50:37.748Z,7.57
2018-07-27T21:53:05.363Z,8.67
2018-07-27T21:55:33.514Z,8.20
2018-07-27T21:58:01.234Z,7.30
2018-07-27T22:00:32.142Z,8.20
2018-07-27T22:02:59.735Z,8.17
2018-07-27T22:05:27.378Z,7.57
2018-07-27T22:07:55.004Z,8.23
2018-07-27T22:10:23.274Z,7.60
2018-07-27T22:12:50.926Z,8.00
2018-07-27T22:15:23.462Z,7.60
2018-07-27T22:17:51.384Z,6.87
2018-07-27T22:20:19.208Z,6.80
2018-07-27T22:22:47.312Z,7.93
2018-07-27T22:25:14.968Z,7.20
2018-07-27T22:27:42.838Z,7.67
2018-07-27T22:30:11.487Z,7.03
2018-07-27T22:32:39.363Z,7.33
2018-07-27T22:35:06.978Z,7.10
2018-07-27T22:37:34.638Z,7.30
2018-07-27T22:40:02.331Z,6.83
2018-07-27T22:42:29.957Z,6.73
2018-07-27T22:44:57.605Z,7.40
2018-07-27T22:47:25.200Z,7.10
2018-07-27T22:49:52.923Z,6.77
2018-07-27T22:52:20.998Z,7.40
2018-07-27T22:54:48.641Z,6.90
2018-07-27T22:57:16.309Z,6.93
2018-07-27T22:59:43.948Z,6.93
2018-07-27T23:02:11.718Z,7.00
2018-07-27T23:04:39.425Z,7.10
2018-07-27T23:07:07.155Z,6.87
2018-07-27T23:09:34.798Z,7.83
2018-07-27T23:12:02.417Z,6.77
2018-07-27T23:14:30.009Z,6.90
2018-07-27T23:16:57.707Z,6.97
2018-07-27T23:19:25.428Z,7.43
2018-07-27T23:21:53.050Z,6.77
2018-07-27T23:24:20.656Z,7.23
2018-07-27T23:26:48.815Z,6.53
2018-07-27T23:29:16.405Z,7.07
2018-07-27T23:31:44.069Z,6.90
2018-07-27T23:34:11.690Z,7.20
2018-07-27T23:36:39.349Z,7.43
2018-07-27T23:39:08.300Z,7.37
2018-07-27T23:41:35.961Z,7.70
2018-07-27T23:44:03.626Z,7.10
2018-07-27T23:46:31.230Z,7.00
2018-07-27T23:48:58.831Z,6.93
2018-07-27T23:51:26.441Z,6.77
2018-07-27T23:53:54.046Z,6.70
2018-07-27T23:56:21.651Z,6.80
2018-07-27T23:58:49.335Z,6.83
